sensor_id;sensor_type;location;lat;lon;timestamp;temperature;humidity
39865;DHT22;25538;48.392;9.976;2022-11-11T00:01:38;5.50;99.90
39865;DHT22;25538;48.392;9.976;2022-11-11T00:04:04;5.60;99.90
39865;DHT22;25538;48.392;9.976;2022-11-11T00:06:30;5.60;99.90
39865;DHT22;25538;48.392;9.976;2022-11-11T00:08:56;5.50;99.90
39865;DHT22;25538;48.392;9.976;2022-11-11T00:11:22;5.50;99.90
39865;DHT22;25538;48.392;9.976;2022-11-11T00:13:48;5.50;99.90
39865;DHT22;25538;48.392;9.976;2022-11-11T00:16:16;5.50;99.90
39865;DHT22;25538;48.392;9.976;2022-11-11T00:18:43;5.40;99.90
39865;DHT22;25538;48.392;9.976;2022-11-11T00:21:28;5.40;99.90
39865;DHT22;25538;48.392;9.976;2022-11-11T00:24:24;5.40;99.90
39865;DHT22;25538;48.392;9.976;2022-11-11T00:27:09;5.40;99.90
39865;DHT22;25538;48.392;9.976;2022-11-11T00:29:36;5.40;99.90
39865;DHT22;25538;48.392;9.976;2022-11-11T00:32:04;5.30;99.90
39865;DHT22;25538;48.392;9.976;2022-11-11T00:34:48;5.30;99.90
39865;DHT22;25538;48.392;9.976;2022-11-11T00:37:33;5.20;99.90
39865;DHT22;25538;48.392;9.976;2022-11-11T00:39:59;5.30;99.90
39865;DHT22;25538;48.392;9.976;2022-11-11T00:42:26;5.20;99.90
39865;DHT22;25538;48.392;9.976;2022-11-11T00:44:52;5.20;99.90
39865;DHT22;25538;48.392;9.976;2022-11-11T00:47:18;5.20;99.90
39865;DHT22;25538;48.392;9.976;2022-11-11T00:50:04;5.20;99.90
39865;DHT22;25538;48.392;9.976;2022-11-11T00:52:49;5.20;99.90
39865;DHT22;25538;48.392;9.976;2022-11-11T00:55:15;5.20;99.90
39865;DHT22;25538;48.392;9.976;2022-11-11T00:57:41;5.20;99.90
39865;DHT22;25538;48.392;9.976;2022-11-11T01:00:07;5.20;99.90
39865;DHT22;25538;48.392;9.976;2022-11-11T01:02:33;5.20;99.90
39865;DHT22;25538;48.392;9.976;2022-11-11T01:04:59;5.20;99.90
39865;DHT22;25538;48.392;9.976;2022-11-11T01:07:25;5.10;99.90
39865;DHT22;25538;48.392;9.976;2022-11-11T01:09:51;5.10;99.90
39865;DHT22;25538;48.392;9.976;2022-11-11T01:12:17;5.10;99.90
39865;DHT22;25538;48.392;9.976;2022-11-11T01:14:43;5.00;99.90
39865;DHT22;25538;48.392;9.976;2022-11-11T01:17:09;5.00;99.90
39865;DHT22;25538;48.392;9.976;2022-11-11T01:19:35;4.90;99.90
39865;DHT22;25538;48.392;9.976;2022-11-11T01:22:01;4.90;99.90
39865;DHT22;25538;48.392;9.976;2022-11-11T01:24:27;4.90;99.90
39865;DHT22;25538;48.392;9.976;2022-11-11T01:26:52;4.80;99.90
39865;DHT22;25538;48.392;9.976;2022-11-11T01:29:18;4.90;99.90
39865;DHT22;25538;48.392;9.976;2022-11-11T01:31:45;4.80;99.90
39865;DHT22;25538;48.392;9.976;2022-11-11T01:34:10;4.80;99.90
39865;DHT22;25538;48.392;9.976;2022-11-11T01:36:36;4.80;99.90
39865;DHT22;25538;48.392;9.976;2022-11-11T01:39:02;4.80;99.90
39865;DHT22;25538;48.392;9.976;2022-11-11T01:41:33;4.70;99.90
39865;DHT22;25538;48.392;9.976;2022-11-11T01:46:53;4.70;99.90
39865;DHT22;25538;48.392;9.976;2022-11-11T01:54:43;4.60;99.90
39865;DHT22;25538;48.392;9.976;2022-11-11T01:57:33;4.60;99.90
39865;DHT22;25538;48.392;9.976;2022-11-11T02:00:12;4.60;99.90
39865;DHT22;25538;48.392;9.976;2022-11-11T02:02:41;4.60;99.90
39865;DHT22;25538;48.392;9.976;2022-11-11T02:05:10;4.50;99.90
39865;DHT22;25538;48.392;9.976;2022-11-11T02:07:57;4.60;99.90
39865;DHT22;25538;48.392;9.976;2022-11-11T02:10:25;4.60;99.90
39865;DHT22;25538;48.392;9.976;2022-11-11T02:12:52;4.50;99.90
39865;DHT22;25538;48.392;9.976;2022-11-11T02:15:37;4.50;99.90
39865;DHT22;25538;48.392;9.976;2022-11-11T02:18:04;4.40;99.90
39865;DHT22;25538;48.392;9.976;2022-11-11T02:20:34;4.40;99.90
39865;DHT22;25538;48.392;9.976;2022-11-11T02:23:27;4.40;99.90
39865;DHT22;25538;48.392;9.976;2022-11-11T02:25:51;4.40;99.90
39865;DHT22;25538;48.392;9.976;2022-11-11T02:28:19;4.40;99.90
39865;DHT22;25538;48.392;9.976;2022-11-11T02:30:46;4.40;99.90
39865;DHT22;25538;48.392;9.976;2022-11-11T02:33:12;4.50;99.90
39865;DHT22;25538;48.392;9.976;2022-11-11T02:35:43;4.50;99.90
39865;DHT22;25538;48.392;9.976;2022-11-11T02:38:10;4.50;99.90
39865;DHT22;25538;48.392;9.976;2022-11-11T02:40:44;4.50;99.90
39865;DHT22;25538;48.392;9.976;2022-11-11T02:43:32;4.50;99.90
39865;DHT22;25538;48.392;9.976;2022-11-11T02:45:59;4.50;99.90
39865;DHT22;25538;48.392;9.976;2022-11-11T02:48:26;4.60;99.90
39865;DHT22;25538;48.392;9.976;2022-11-11T02:50:52;4.50;99.90
39865;DHT22;25538;48.392;9.976;2022-11-11T02:53:19;4.50;99.90
39865;DHT22;25538;48.392;9.976;2022-11-11T02:55:45;4.50;99.90
39865;DHT22;25538;48.392;9.976;2022-11-11T02:58:11;4.50;99.90
39865;DHT22;25538;48.392;9.976;2022-11-11T03:00:37;4.50;99.90
39865;DHT22;25538;48.392;9.976;2022-11-11T03:03:03;4.50;99.90
39865;DHT22;25538;48.392;9.976;2022-11-11T03:05:29;4.50;99.90
39865;DHT22;25538;48.392;9.976;2022-11-11T03:07:55;4.40;99.90
39865;DHT22;25538;48.392;9.976;2022-11-11T03:10:20;4.40;99.90
39865;DHT22;25538;48.392;9.976;2022-11-11T03:12:46;4.40;99.90
39865;DHT22;25538;48.392;9.976;2022-11-11T03:15:12;4.30;99.90
39865;DHT22;25538;48.392;9.976;2022-11-11T03:17:38;4.30;99.90
39865;DHT22;25538;48.392;9.976;2022-11-11T03:20:12;4.30;99.90
39865;DHT22;25538;48.392;9.976;2022-11-11T03:23:04;4.20;99.90
39865;DHT22;25538;48.392;9.976;2022-11-11T03:25:31;4.20;99.90
39865;DHT22;25538;48.392;9.976;2022-11-11T03:28:13;4.20;99.90
39865;DHT22;25538;48.392;9.976;2022-11-11T03:30:43;4.20;99.90
39865;DHT22;25538;48.392;9.976;2022-11-11T03:33:10;4.10;99.90
39865;DHT22;25538;48.392;9.976;2022-11-11T03:35:36;4.00;99.90
39865;DHT22;25538;48.392;9.976;2022-11-11T03:38:03;4.10;99.90
39865;DHT22;25538;48.392;9.976;2022-11-11T03:40:53;4.10;99.90
39865;DHT22;25538;48.392;9.976;2022-11-11T03:43:21;4.10;99.90
39865;DHT22;25538;48.392;9.976;2022-11-11T03:45:48;4.10;99.90
39865;DHT22;25538;48.392;9.976;2022-11-11T03:48:14;4.10;99.90
39865;DHT22;25538;48.392;9.976;2022-11-11T03:50:40;4.20;99.90
39865;DHT22;25538;48.392;9.976;2022-11-11T03:53:06;4.20;99.90
39865;DHT22;25538;48.392;9.976;2022-11-11T03:55:32;4.20;99.90
39865;DHT22;25538;48.392;9.976;2022-11-11T03:57:58;4.10;99.90
39865;DHT22;25538;48.392;9.976;2022-11-11T04:00:27;4.10;99.90
39865;DHT22;25538;48.392;9.976;2022-11-11T04:05:47;4.10;99.90
39865;DHT22;25538;48.392;9.976;2022-11-11T04:08:32;4.10;99.90
39865;DHT22;25538;48.392;9.976;2022-11-11T04:11:26;4.00;99.90
39865;DHT22;25538;48.392;9.976;2022-11-11T04:13:53;4.00;99.90
39865;DHT22;25538;48.392;9.976;2022-11-11T04:16:39;4.00;99.90
39865;DHT22;25538;48.392;9.976;2022-11-11T04:19:05;4.00;99.90
39865;DHT22;25538;48.392;9.976;2022-11-11T04:21:50;4.00;99.90
39865;DHT22;25538;48.392;9.976;2022-11-11T04:24:18;4.00;99.90
39865;DHT22;25538;48.392;9.976;2022-11-11T04:27:14;4.10;99.90
39865;DHT22;25538;48.392;9.976;2022-11-11T04:29:41;4.10;99.90
39865;DHT22;25538;48.392;9.976;2022-11-11T04:32:15;4.00;99.90
39865;DHT22;25538;48.392;9.976;2022-11-11T04:35:02;4.00;99.90
39865;DHT22;25538;48.392;9.976;2022-11-11T04:37:32;3.90;99.90
39865;DHT22;25538;48.392;9.976;2022-11-11T04:39:59;3.80;99.90
39865;DHT22;25538;48.392;9.976;2022-11-11T04:42:43;3.80;99.90
39865;DHT22;25538;48.392;9.976;2022-11-11T04:45:10;3.80;99.90
39865;DHT22;25538;48.392;9.976;2022-11-11T04:48:00;3.80;99.90
39865;DHT22;25538;48.392;9.976;2022-11-11T04:50:32;3.70;99.90
39865;DHT22;25538;48.392;9.976;2022-11-11T04:52:59;3.70;99.90
39865;DHT22;25538;48.392;9.976;2022-11-11T04:55:25;3.70;99.90
39865;DHT22;25538;48.392;9.976;2022-11-11T04:58:10;3.70;99.90
39865;DHT22;25538;48.392;9.976;2022-11-11T05:00:36;3.80;99.90
39865;DHT22;25538;48.392;9.976;2022-11-11T05:03:02;3.90;99.90
39865;DHT22;25538;48.392;9.976;2022-11-11T05:05:42;3.90;99.90
39865;DHT22;25538;48.392;9.976;2022-11-11T05:08:27;4.00;99.90
39865;DHT22;25538;48.392;9.976;2022-11-11T05:11:12;4.00;99.90
39865;DHT22;25538;48.392;9.976;2022-11-11T05:13:38;4.00;99.90
39865;DHT22;25538;48.392;9.976;2022-11-11T05:16:28;4.00;99.90
39865;DHT22;25538;48.392;9.976;2022-11-11T05:19:14;4.10;99.90
39865;DHT22;25538;48.392;9.976;2022-11-11T05:24:32;4.40;99.90
39865;DHT22;25538;48.392;9.976;2022-11-11T05:27:16;4.50;99.90
39865;DHT22;25538;48.392;9.976;2022-11-11T05:29:42;4.60;99.90
39865;DHT22;25538;48.392;9.976;2022-11-11T05:32:08;4.70;99.90
39865;DHT22;25538;48.392;9.976;2022-11-11T05:34:34;4.70;99.90
39865;DHT22;25538;48.392;9.976;2022-11-11T05:37:00;4.70;99.90
39865;DHT22;25538;48.392;9.976;2022-11-11T05:39:26;4.70;99.90
39865;DHT22;25538;48.392;9.976;2022-11-11T05:41:52;4.80;99.90
39865;DHT22;25538;48.392;9.976;2022-11-11T05:44:18;4.90;99.90
39865;DHT22;25538;48.392;9.976;2022-11-11T05:46:44;4.80;99.90
39865;DHT22;25538;48.392;9.976;2022-11-11T05:49:09;4.80;99.90
39865;DHT22;25538;48.392;9.976;2022-11-11T05:51:43;4.80;99.90
39865;DHT22;25538;48.392;9.976;2022-11-11T05:54:11;4.90;99.90
39865;DHT22;25538;48.392;9.976;2022-11-11T05:56:37;4.90;99.90
39865;DHT22;25538;48.392;9.976;2022-11-11T05:59:03;4.80;99.90
39865;DHT22;25538;48.392;9.976;2022-11-11T06:01:30;4.70;99.90
39865;DHT22;25538;48.392;9.976;2022-11-11T06:03:56;4.70;99.90
39865;DHT22;25538;48.392;9.976;2022-11-11T06:06:22;4.60;99.90
39865;DHT22;25538;48.392;9.976;2022-11-11T06:08:48;4.50;99.90
39865;DHT22;25538;48.392;9.976;2022-11-11T06:11:14;4.40;99.90
39865;DHT22;25538;48.392;9.976;2022-11-11T06:13:40;4.50;99.90
39865;DHT22;25538;48.392;9.976;2022-11-11T06:16:06;4.50;99.90
39865;DHT22;25538;48.392;9.976;2022-11-11T06:18:32;4.50;99.90
39865;DHT22;25538;48.392;9.976;2022-11-11T06:20:59;4.50;99.90
39865;DHT22;25538;48.392;9.976;2022-11-11T06:23:26;4.60;99.90
39865;DHT22;25538;48.392;9.976;2022-11-11T06:25:52;4.60;99.90
39865;DHT22;25538;48.392;9.976;2022-11-11T06:28:55;4.60;99.90
39865;DHT22;25538;48.392;9.976;2022-11-11T06:31:24;4.70;99.90
39865;DHT22;25538;48.392;9.976;2022-11-11T06:33:50;4.80;99.90
39865;DHT22;25538;48.392;9.976;2022-11-11T06:36:18;4.80;99.90
39865;DHT22;25538;48.392;9.976;2022-11-11T06:38:45;4.90;99.90
39865;DHT22;25538;48.392;9.976;2022-11-11T06:41:11;4.90;99.90
39865;DHT22;25538;48.392;9.976;2022-11-11T06:43:41;4.90;99.90
39865;DHT22;25538;48.392;9.976;2022-11-11T06:46:21;5.00;99.90
39865;DHT22;25538;48.392;9.976;2022-11-11T06:48:48;4.90;99.90
39865;DHT22;25538;48.392;9.976;2022-11-11T06:51:14;4.90;99.90
39865;DHT22;25538;48.392;9.976;2022-11-11T06:53:41;4.90;99.90
39865;DHT22;25538;48.392;9.976;2022-11-11T06:56:07;4.90;99.90
39865;DHT22;25538;48.392;9.976;2022-11-11T06:58:33;4.90;99.90
39865;DHT22;25538;48.392;9.976;2022-11-11T07:01:04;5.00;99.90
39865;DHT22;25538;48.392;9.976;2022-11-11T07:03:30;5.00;99.90
39865;DHT22;25538;48.392;9.976;2022-11-11T07:06:00;5.00;99.90
39865;DHT22;25538;48.392;9.976;2022-11-11T07:08:26;5.00;99.90
39865;DHT22;25538;48.392;9.976;2022-11-11T07:10:52;4.80;99.90
39865;DHT22;25538;48.392;9.976;2022-11-11T07:15:46;4.70;99.90
39865;DHT22;25538;48.392;9.976;2022-11-11T07:18:12;4.80;99.90
39865;DHT22;25538;48.392;9.976;2022-11-11T07:20:38;4.80;99.90
39865;DHT22;25538;48.392;9.976;2022-11-11T07:23:05;5.00;99.90
39865;DHT22;25538;48.392;9.976;2022-11-11T07:25:31;5.20;99.90
39865;DHT22;25538;48.392;9.976;2022-11-11T07:27:57;5.30;99.90
39865;DHT22;25538;48.392;9.976;2022-11-11T07:30:23;5.50;99.90
39865;DHT22;25538;48.392;9.976;2022-11-11T07:32:51;5.70;99.90
39865;DHT22;25538;48.392;9.976;2022-11-11T07:35:18;5.70;99.90
39865;DHT22;25538;48.392;9.976;2022-11-11T07:37:44;5.80;99.90
39865;DHT22;25538;48.392;9.976;2022-11-11T07:40:13;5.90;99.90
39865;DHT22;25538;48.392;9.976;2022-11-11T07:42:40;6.00;99.90
39865;DHT22;25538;48.392;9.976;2022-11-11T07:45:07;6.00;99.90
39865;DHT22;25538;48.392;9.976;2022-11-11T07:47:34;6.00;99.90
39865;DHT22;25538;48.392;9.976;2022-11-11T07:50:01;6.10;99.90
39865;DHT22;25538;48.392;9.976;2022-11-11T07:52:27;6.10;99.90
39865;DHT22;25538;48.392;9.976;2022-11-11T07:54:53;6.10;99.90
39865;DHT22;25538;48.392;9.976;2022-11-11T07:57:20;6.20;99.90
39865;DHT22;25538;48.392;9.976;2022-11-11T07:59:46;6.20;99.90
39865;DHT22;25538;48.392;9.976;2022-11-11T08:02:13;6.00;99.90
39865;DHT22;25538;48.392;9.976;2022-11-11T08:04:39;5.90;99.90
39865;DHT22;25538;48.392;9.976;2022-11-11T08:07:05;5.70;99.90
39865;DHT22;25538;48.392;9.976;2022-11-11T08:09:31;5.50;99.90
39865;DHT22;25538;48.392;9.976;2022-11-11T08:11:56;5.50;99.90
39865;DHT22;25538;48.392;9.976;2022-11-11T08:14:41;5.30;99.90
39865;DHT22;25538;48.392;9.976;2022-11-11T08:17:07;5.10;99.90
39865;DHT22;25538;48.392;9.976;2022-11-11T08:19:33;5.00;99.90
39865;DHT22;25538;48.392;9.976;2022-11-11T08:21:59;5.10;99.90
39865;DHT22;25538;48.392;9.976;2022-11-11T08:24:25;5.10;99.90
39865;DHT22;25538;48.392;9.976;2022-11-11T08:26:51;5.20;99.90
39865;DHT22;25538;48.392;9.976;2022-11-11T08:29:18;5.40;99.90
39865;DHT22;25538;48.392;9.976;2022-11-11T08:31:44;5.50;99.90
39865;DHT22;25538;48.392;9.976;2022-11-11T08:34:10;5.50;99.90
39865;DHT22;25538;48.392;9.976;2022-11-11T08:36:37;5.50;99.90
39865;DHT22;25538;48.392;9.976;2022-11-11T08:39:03;5.60;99.90
39865;DHT22;25538;48.392;9.976;2022-11-11T08:41:29;5.60;99.90
39865;DHT22;25538;48.392;9.976;2022-11-11T08:43:55;5.70;99.90
39865;DHT22;25538;48.392;9.976;2022-11-11T08:46:22;5.70;99.90
39865;DHT22;25538;48.392;9.976;2022-11-11T08:48:48;5.80;99.90
39865;DHT22;25538;48.392;9.976;2022-11-11T08:51:15;5.90;99.90
39865;DHT22;25538;48.392;9.976;2022-11-11T08:53:41;6.00;99.90
39865;DHT22;25538;48.392;9.976;2022-11-11T08:56:07;6.00;99.90
39865;DHT22;25538;48.392;9.976;2022-11-11T08:58:33;5.80;99.90
39865;DHT22;25538;48.392;9.976;2022-11-11T09:00:59;5.90;99.90
39865;DHT22;25538;48.392;9.976;2022-11-11T09:03:26;5.80;99.90
39865;DHT22;25538;48.392;9.976;2022-11-11T09:05:52;5.70;99.90
39865;DHT22;25538;48.392;9.976;2022-11-11T09:08:18;5.90;99.90
39865;DHT22;25538;48.392;9.976;2022-11-11T09:10:44;6.00;99.90
39865;DHT22;25538;48.392;9.976;2022-11-11T09:13:10;5.90;99.90
39865;DHT22;25538;48.392;9.976;2022-11-11T09:15:36;5.70;99.90
39865;DHT22;25538;48.392;9.976;2022-11-11T09:18:02;5.70;99.90
39865;DHT22;25538;48.392;9.976;2022-11-11T09:20:28;5.70;99.90
39865;DHT22;25538;48.392;9.976;2022-11-11T09:22:54;5.60;99.90
39865;DHT22;25538;48.392;9.976;2022-11-11T09:25:20;5.50;99.90
39865;DHT22;25538;48.392;9.976;2022-11-11T09:28:05;5.60;99.90
39865;DHT22;25538;48.392;9.976;2022-11-11T09:30:32;5.60;99.90
39865;DHT22;25538;48.392;9.976;2022-11-11T09:33:02;5.60;99.90
39865;DHT22;25538;48.392;9.976;2022-11-11T09:35:28;5.70;99.90
39865;DHT22;25538;48.392;9.976;2022-11-11T09:37:56;5.60;99.90
39865;DHT22;25538;48.392;9.976;2022-11-11T09:40:25;5.60;99.90
39865;DHT22;25538;48.392;9.976;2022-11-11T09:43:02;5.60;99.90
39865;DHT22;25538;48.392;9.976;2022-11-11T09:45:48;5.40;99.90
39865;DHT22;25538;48.392;9.976;2022-11-11T09:51:00;5.60;99.90
39865;DHT22;25538;48.392;9.976;2022-11-11T09:53:32;5.70;99.90
39865;DHT22;25538;48.392;9.976;2022-11-11T09:56:11;5.80;99.90
39865;DHT22;25538;48.392;9.976;2022-11-11T09:58:46;6.00;99.90
39865;DHT22;25538;48.392;9.976;2022-11-11T10:01:25;6.20;99.90
39865;DHT22;25538;48.392;9.976;2022-11-11T10:04:04;6.40;99.90
39865;DHT22;25538;48.392;9.976;2022-11-11T10:06:34;6.60;99.90
39865;DHT22;25538;48.392;9.976;2022-11-11T10:09:27;6.60;99.90
39865;DHT22;25538;48.392;9.976;2022-11-11T10:12:06;6.60;99.90
39865;DHT22;25538;48.392;9.976;2022-11-11T10:14:38;6.60;99.90
39865;DHT22;25538;48.392;9.976;2022-11-11T10:17:33;6.50;99.90
39865;DHT22;25538;48.392;9.976;2022-11-11T10:22:39;6.70;99.90
39865;DHT22;25538;48.392;9.976;2022-11-11T10:27:42;6.70;99.90
39865;DHT22;25538;48.392;9.976;2022-11-11T10:30:19;6.60;99.90
39865;DHT22;25538;48.392;9.976;2022-11-11T10:32:53;6.70;99.90
39865;DHT22;25538;48.392;9.976;2022-11-11T10:35:26;6.80;99.90
39865;DHT22;25538;48.392;9.976;2022-11-11T10:38:05;7.00;99.90
39865;DHT22;25538;48.392;9.976;2022-11-11T10:40:47;6.80;99.90
39865;DHT22;25538;48.392;9.976;2022-11-11T10:43:24;6.60;99.90
39865;DHT22;25538;48.392;9.976;2022-11-11T10:48:50;6.70;99.90
39865;DHT22;25538;48.392;9.976;2022-11-11T10:51:14;6.80;99.90
39865;DHT22;25538;48.392;9.976;2022-11-11T10:59:00;6.90;99.90
39865;DHT22;25538;48.392;9.976;2022-11-11T11:01:51;7.00;99.90
39865;DHT22;25538;48.392;9.976;2022-11-11T11:04:50;7.30;99.90
39865;DHT22;25538;48.392;9.976;2022-11-11T11:07:21;7.30;99.90
39865;DHT22;25538;48.392;9.976;2022-11-11T11:09:52;7.10;99.90
39865;DHT22;25538;48.392;9.976;2022-11-11T11:12:22;7.10;99.90
39865;DHT22;25538;48.392;9.976;2022-11-11T11:14:53;7.00;99.90
39865;DHT22;25538;48.392;9.976;2022-11-11T11:17:34;6.90;99.90
39865;DHT22;25538;48.392;9.976;2022-11-11T11:20:18;6.90;99.90
39865;DHT22;25538;48.392;9.976;2022-11-11T11:25:17;6.80;99.90
39865;DHT22;25538;48.392;9.976;2022-11-11T11:27:43;6.80;99.90
39865;DHT22;25538;48.392;9.976;2022-11-11T11:30:19;6.70;99.90
39865;DHT22;25538;48.392;9.976;2022-11-11T11:33:08;6.70;99.90
39865;DHT22;25538;48.392;9.976;2022-11-11T11:38:06;6.60;99.90
39865;DHT22;25538;48.392;9.976;2022-11-11T11:40:53;6.50;99.90
39865;DHT22;25538;48.392;9.976;2022-11-11T11:43:38;6.40;99.90
39865;DHT22;25538;48.392;9.976;2022-11-11T11:49:18;6.60;99.90
39865;DHT22;25538;48.392;9.976;2022-11-11T11:52:21;6.70;99.90
39865;DHT22;25538;48.392;9.976;2022-11-11T11:54:57;6.80;99.90
39865;DHT22;25538;48.392;9.976;2022-11-11T12:05:47;7.10;99.90
39865;DHT22;25538;48.392;9.976;2022-11-11T12:11:08;7.40;99.90
39865;DHT22;25538;48.392;9.976;2022-11-11T12:16:32;7.40;99.90
39865;DHT22;25538;48.392;9.976;2022-11-11T12:22:03;7.50;99.90
39865;DHT22;25538;48.392;9.976;2022-11-11T12:30:21;7.50;99.90
39865;DHT22;25538;48.392;9.976;2022-11-11T12:36:19;7.60;99.90
39865;DHT22;25538;48.392;9.976;2022-11-11T12:39:04;7.50;99.90
39865;DHT22;25538;48.392;9.976;2022-11-11T12:50:03;7.40;99.90
39865;DHT22;25538;48.392;9.976;2022-11-11T13:00:30;7.40;99.90
39865;DHT22;25538;48.392;9.976;2022-11-11T13:12:04;7.40;99.90
39865;DHT22;25538;48.392;9.976;2022-11-11T13:17:10;7.70;99.90
39865;DHT22;25538;48.392;9.976;2022-11-11T13:19:52;7.60;99.90
39865;DHT22;25538;48.392;9.976;2022-11-11T13:22:28;7.50;99.90
39865;DHT22;25538;48.392;9.976;2022-11-11T13:24:55;7.40;99.90
39865;DHT22;25538;48.392;9.976;2022-11-11T13:27:31;7.40;99.90
39865;DHT22;25538;48.392;9.976;2022-11-11T13:33:06;7.50;99.90
39865;DHT22;25538;48.392;9.976;2022-11-11T13:35:45;7.50;99.90
39865;DHT22;25538;48.392;9.976;2022-11-11T13:38:34;7.50;99.90
39865;DHT22;25538;48.392;9.976;2022-11-11T13:41:05;7.60;99.90
39865;DHT22;25538;48.392;9.976;2022-11-11T13:43:35;7.70;99.90
39865;DHT22;25538;48.392;9.976;2022-11-11T13:46:27;7.80;99.90
39865;DHT22;25538;48.392;9.976;2022-11-11T13:48:52;7.80;99.90
39865;DHT22;25538;48.392;9.976;2022-11-11T13:53:52;7.90;99.90
39865;DHT22;25538;48.392;9.976;2022-11-11T13:56:24;8.00;99.90
39865;DHT22;25538;48.392;9.976;2022-11-11T13:58:52;8.20;99.90
39865;DHT22;25538;48.392;9.976;2022-11-11T14:01:19;8.30;99.90
39865;DHT22;25538;48.392;9.976;2022-11-11T14:13:57;8.20;99.90
39865;DHT22;25538;48.392;9.976;2022-11-11T14:22:28;8.00;99.90
39865;DHT22;25538;48.392;9.976;2022-11-11T14:24:46;8.00;99.90
39865;DHT22;25538;48.392;9.976;2022-11-11T14:27:21;7.90;99.90
39865;DHT22;25538;48.392;9.976;2022-11-11T14:29:53;8.00;99.90
39865;DHT22;25538;48.392;9.976;2022-11-11T14:32:52;8.00;99.90
39865;DHT22;25538;48.392;9.976;2022-11-11T14:35:35;8.00;99.90
39865;DHT22;25538;48.392;9.976;2022-11-11T14:38:22;8.00;99.90
39865;DHT22;25538;48.392;9.976;2022-11-11T14:40:53;8.00;99.90
39865;DHT22;25538;48.392;9.976;2022-11-11T14:43:38;8.00;99.90
39865;DHT22;25538;48.392;9.976;2022-11-11T14:46:11;7.90;99.90
39865;DHT22;25538;48.392;9.976;2022-11-11T14:49:00;7.90;99.90
39865;DHT22;25538;48.392;9.976;2022-11-11T14:51:49;8.00;99.90
39865;DHT22;25538;48.392;9.976;2022-11-11T14:57:02;8.00;99.90
39865;DHT22;25538;48.392;9.976;2022-11-11T14:59:31;8.10;99.90
39865;DHT22;25538;48.392;9.976;2022-11-11T15:01:58;8.00;99.90
39865;DHT22;25538;48.392;9.976;2022-11-11T15:04:25;7.90;99.90
39865;DHT22;25538;48.392;9.976;2022-11-11T15:07:00;7.80;99.90
39865;DHT22;25538;48.392;9.976;2022-11-11T15:09:51;7.70;99.90
39865;DHT22;25538;48.392;9.976;2022-11-11T15:15:15;7.80;99.90
39865;DHT22;25538;48.392;9.976;2022-11-11T15:26:27;7.90;99.90
39865;DHT22;25538;48.392;9.976;2022-11-11T15:29:20;7.90;99.90
39865;DHT22;25538;48.392;9.976;2022-11-11T15:34:42;7.80;99.90
39865;DHT22;25538;48.392;9.976;2022-11-11T15:37:17;7.80;99.90
39865;DHT22;25538;48.392;9.976;2022-11-11T15:39:47;7.80;99.90
39865;DHT22;25538;48.392;9.976;2022-11-11T15:42:37;7.80;99.90
39865;DHT22;25538;48.392;9.976;2022-11-11T15:47:46;7.80;99.90
39865;DHT22;25538;48.392;9.976;2022-11-11T15:50:17;7.80;99.90
39865;DHT22;25538;48.392;9.976;2022-11-11T15:52:43;7.80;99.90
39865;DHT22;25538;48.392;9.976;2022-11-11T15:55:27;7.80;99.90
39865;DHT22;25538;48.392;9.976;2022-11-11T15:57:54;7.80;99.90
39865;DHT22;25538;48.392;9.976;2022-11-11T16:00:32;7.60;99.90
39865;DHT22;25538;48.392;9.976;2022-11-11T16:02:58;7.60;99.90
39865;DHT22;25538;48.392;9.976;2022-11-11T16:05:26;7.60;99.90
39865;DHT22;25538;48.392;9.976;2022-11-11T16:07:55;7.60;99.90
39865;DHT22;25538;48.392;9.976;2022-11-11T16:10:28;7.70;99.90
39865;DHT22;25538;48.392;9.976;2022-11-11T16:15:49;7.80;99.90
39865;DHT22;25538;48.392;9.976;2022-11-11T16:18:23;7.80;99.90
39865;DHT22;25538;48.392;9.976;2022-11-11T16:21:11;7.80;99.90
39865;DHT22;25538;48.392;9.976;2022-11-11T16:23:40;7.80;99.90
39865;DHT22;25538;48.392;9.976;2022-11-11T16:26:07;7.80;99.90
39865;DHT22;25538;48.392;9.976;2022-11-11T16:37:08;7.60;99.90
39865;DHT22;25538;48.392;9.976;2022-11-11T16:39:36;7.60;99.90
39865;DHT22;25538;48.392;9.976;2022-11-11T16:45:01;7.60;99.90
39865;DHT22;25538;48.392;9.976;2022-11-11T16:55:24;7.60;99.90
39865;DHT22;25538;48.392;9.976;2022-11-11T16:57:59;7.60;99.90
39865;DHT22;25538;48.392;9.976;2022-11-11T17:00:28;7.50;99.90
39865;DHT22;25538;48.392;9.976;2022-11-11T17:03:14;7.50;99.90
39865;DHT22;25538;48.392;9.976;2022-11-11T17:08:28;7.50;99.90
39865;DHT22;25538;48.392;9.976;2022-11-11T17:10:55;7.50;99.90
39865;DHT22;25538;48.392;9.976;2022-11-11T17:13:20;7.50;99.90
39865;DHT22;25538;48.392;9.976;2022-11-11T17:15:46;7.50;99.90
39865;DHT22;25538;48.392;9.976;2022-11-11T17:18:12;7.50;99.90
39865;DHT22;25538;48.392;9.976;2022-11-11T17:20:39;7.50;99.90
39865;DHT22;25538;48.392;9.976;2022-11-11T17:23:05;7.40;99.90
39865;DHT22;25538;48.392;9.976;2022-11-11T17:25:31;7.40;99.90
39865;DHT22;25538;48.392;9.976;2022-11-11T17:27:58;7.30;99.90
39865;DHT22;25538;48.392;9.976;2022-11-11T17:30:24;7.30;99.90
39865;DHT22;25538;48.392;9.976;2022-11-11T17:32:50;7.30;99.90
39865;DHT22;25538;48.392;9.976;2022-11-11T17:35:16;7.30;99.90
39865;DHT22;25538;48.392;9.976;2022-11-11T17:37:42;7.30;99.90
39865;DHT22;25538;48.392;9.976;2022-11-11T17:40:09;7.30;99.90
39865;DHT22;25538;48.392;9.976;2022-11-11T17:42:36;7.30;99.90
39865;DHT22;25538;48.392;9.976;2022-11-11T17:45:03;7.30;99.90
39865;DHT22;25538;48.392;9.976;2022-11-11T17:47:30;7.40;99.90
39865;DHT22;25538;48.392;9.976;2022-11-11T17:49:57;7.40;99.90
39865;DHT22;25538;48.392;9.976;2022-11-11T17:52:23;7.50;99.90
39865;DHT22;25538;48.392;9.976;2022-11-11T17:54:49;7.50;99.90
39865;DHT22;25538;48.392;9.976;2022-11-11T17:57:15;7.50;99.90
39865;DHT22;25538;48.392;9.976;2022-11-11T17:59:41;7.50;99.90
39865;DHT22;25538;48.392;9.976;2022-11-11T18:02:10;7.50;99.90
39865;DHT22;25538;48.392;9.976;2022-11-11T18:04:37;7.50;99.90
39865;DHT22;25538;48.392;9.976;2022-11-11T18:07:03;7.40;99.90
39865;DHT22;25538;48.392;9.976;2022-11-11T18:09:29;7.40;99.90
39865;DHT22;25538;48.392;9.976;2022-11-11T18:11:55;7.40;99.90
39865;DHT22;25538;48.392;9.976;2022-11-11T18:14:21;7.50;99.90
39865;DHT22;25538;48.392;9.976;2022-11-11T18:16:47;7.60;99.90
39865;DHT22;25538;48.392;9.976;2022-11-11T18:19:13;7.60;99.90
39865;DHT22;25538;48.392;9.976;2022-11-11T18:21:39;7.70;99.90
39865;DHT22;25538;48.392;9.976;2022-11-11T18:24:09;7.70;99.90
39865;DHT22;25538;48.392;9.976;2022-11-11T18:26:36;7.80;99.90
39865;DHT22;25538;48.392;9.976;2022-11-11T18:29:09;7.70;99.90
39865;DHT22;25538;48.392;9.976;2022-11-11T18:31:35;7.70;99.90
39865;DHT22;25538;48.392;9.976;2022-11-11T18:34:02;7.60;99.90
39865;DHT22;25538;48.392;9.976;2022-11-11T18:36:28;7.50;99.90
39865;DHT22;25538;48.392;9.976;2022-11-11T18:38:54;7.60;99.90
39865;DHT22;25538;48.392;9.976;2022-11-11T18:41:21;7.60;99.90
39865;DHT22;25538;48.392;9.976;2022-11-11T18:43:49;7.60;99.90
39865;DHT22;25538;48.392;9.976;2022-11-11T18:46:22;7.60;99.90
39865;DHT22;25538;48.392;9.976;2022-11-11T18:48:56;7.50;99.90
39865;DHT22;25538;48.392;9.976;2022-11-11T18:51:22;7.50;99.90